createdAt,value
2022-11-24T00:02:09.766Z,6.15
2022-11-24T00:04:38.004Z,8.43
2022-11-24T00:07:06.067Z,10.32
2022-11-24T00:09:34.187Z,9.32
2022-11-24T00:12:02.477Z,11.80
2022-11-24T00:14:32.372Z,6.45
2022-11-24T00:17:00.709Z,5.88
2022-11-24T00:19:28.820Z,5.40
2022-11-24T00:21:56.885Z,8.18
2022-11-24T00:24:24.952Z,4.25
2022-11-24T00:26:53.277Z,11.82
2022-11-24T00:29:21.384Z,5.05
2022-11-24T00:31:50.794Z,10.95
2022-11-24T00:34:18.899Z,7.95
2022-11-24T00:36:47.132Z,13.23
2022-11-24T00:39:17.341Z,13.70
2022-11-24T00:44:13.546Z,6.43
2022-11-24T00:46:41.782Z,3.35
2022-11-24T00:49:11.919Z,16.23
2022-11-24T00:51:39.958Z,12.70
2022-11-24T00:54:07.990Z,9.48
2022-11-24T00:56:36.002Z,9.68
2022-11-24T00:59:04.083Z,19.90
2022-11-24T01:01:32.355Z,15.68
2022-11-24T01:04:02.624Z,16.00
2022-11-24T01:09:00.933Z,7.30
2022-11-24T01:11:50.474Z,8.32
2022-11-24T01:14:18.773Z,9.45
2022-11-24T01:16:46.803Z,8.85
2022-11-24T01:19:15.254Z,10.63
2022-11-24T01:21:46.014Z,14.05
2022-11-24T01:24:14.507Z,13.85
2022-11-24T01:26:42.997Z,10.13
2022-11-24T01:29:13.031Z,16.65
2022-11-24T01:31:41.271Z,3.97
2022-11-24T01:34:09.372Z,13.52
2022-11-24T01:36:37.417Z,12.50
2022-11-24T01:39:07.642Z,12.85
2022-11-24T01:44:22.376Z,14.65
2022-11-24T01:46:56.400Z,11.52
2022-11-24T01:49:29.010Z,9.82
2022-11-24T01:52:02.400Z,13.57
2022-11-24T01:54:34.902Z,11.30
2022-11-24T01:57:09.557Z,10.50
2022-11-24T01:59:38.501Z,13.63
2022-11-24T02:02:07.144Z,12.65
2022-11-24T02:04:36.380Z,12.68
2022-11-24T02:07:06.974Z,7.80
2022-11-24T02:09:43.131Z,14.60
2022-11-24T02:12:11.270Z,12.02
2022-11-24T02:14:41.618Z,7.05
2022-11-24T02:17:09.894Z,17.60
2022-11-24T02:19:49.036Z,9.63
2022-11-24T02:22:23.688Z,9.05
2022-11-24T02:24:57.450Z,13.05
2022-11-24T02:27:26.986Z,12.70
2022-11-24T02:29:55.070Z,8.48
2022-11-24T02:32:24.496Z,14.93
2022-11-24T02:35:02.016Z,8.73
2022-11-24T02:37:30.297Z,12.73
2022-11-24T02:39:58.365Z,17.65
2022-11-24T02:42:30.034Z,5.97
2022-11-24T02:45:01.269Z,19.85
2022-11-24T02:47:29.785Z,14.70
2022-11-24T02:49:57.856Z,18.65
2022-11-24T02:52:25.905Z,18.38
2022-11-24T02:54:53.928Z,17.00
2022-11-24T02:57:23.811Z,11.40
2022-11-24T02:59:53.260Z,10.52
2022-11-24T03:02:21.490Z,8.80
2022-11-24T03:04:49.727Z,9.40
2022-11-24T03:07:18.269Z,10.60
2022-11-24T03:09:46.581Z,26.02
2022-11-24T03:12:14.606Z,10.82
2022-11-24T03:14:42.689Z,12.60
2022-11-24T03:17:12.241Z,7.82
2022-11-24T03:19:40.294Z,11.60
2022-11-24T03:22:08.278Z,9.85
2022-11-24T03:24:36.510Z,8.55
2022-11-24T03:27:04.921Z,7.40
2022-11-24T03:29:33.031Z,12.25
2022-11-24T03:32:01.609Z,13.07
2022-11-24T03:34:31.266Z,12.27
2022-11-24T03:36:59.611Z,21.48
2022-11-24T03:39:27.588Z,15.23
2022-11-24T03:41:55.671Z,11.82
2022-11-24T03:44:23.706Z,15.27
2022-11-24T03:46:52.099Z,9.18
2022-11-24T03:49:20.161Z,11.55
2022-11-24T03:51:49.544Z,11.32
2022-11-24T03:54:17.565Z,10.27
2022-11-24T03:56:45.682Z,13.30
2022-11-24T03:59:13.731Z,13.13
2022-11-24T04:01:41.786Z,12.55
2022-11-24T04:04:11.823Z,14.23
2022-11-24T04:06:40.172Z,17.60
2022-11-24T04:09:10.979Z,17.95
2022-11-24T04:11:56.309Z,13.35
2022-11-24T04:14:24.442Z,17.48
2022-11-24T04:16:52.498Z,13.05
2022-11-24T04:19:20.767Z,16.27
2022-11-24T04:21:48.843Z,19.17
2022-11-24T04:24:18.272Z,18.70
2022-11-24T04:26:46.332Z,20.27
2022-11-24T04:29:14.544Z,19.13
2022-11-24T04:31:42.866Z,17.55
2022-11-24T04:34:12.358Z,16.75
2022-11-24T04:36:41.216Z,21.05
2022-11-24T04:39:19.592Z,19.88
2022-11-24T04:41:54.052Z,25.17
2022-11-24T04:44:22.268Z,25.63
2022-11-24T04:46:50.483Z,19.13
2022-11-24T04:49:18.778Z,15.10
2022-11-24T04:51:47.123Z,16.77
2022-11-24T04:54:16.085Z,13.90
2022-11-24T04:56:44.792Z,13.77
2022-11-24T04:59:16.088Z,13.05
2022-11-24T05:01:44.888Z,22.90
2022-11-24T05:04:15.200Z,11.88
2022-11-24T05:06:43.427Z,20.52
2022-11-24T05:09:16.422Z,16.75
2022-11-24T05:11:45.031Z,15.18
2022-11-24T05:14:13.068Z,9.95
2022-11-24T05:16:42.722Z,12.52
2022-11-24T05:19:10.814Z,13.90
2022-11-24T05:21:39.174Z,13.13
2022-11-24T05:24:07.779Z,21.67
2022-11-24T05:26:36.239Z,19.10
2022-11-24T05:29:04.331Z,15.65
2022-11-24T05:31:32.469Z,19.15
2022-11-24T05:34:01.974Z,21.75
2022-11-24T05:37:01.774Z,18.00
2022-11-24T05:39:29.959Z,25.60
2022-11-24T05:41:57.982Z,27.95
2022-11-24T05:44:26.030Z,20.08
2022-11-24T05:46:54.175Z,29.85
2022-11-24T05:49:23.579Z,21.88
2022-11-24T05:51:51.577Z,25.50
2022-11-24T05:54:19.646Z,30.40
2022-11-24T05:56:47.766Z,26.48
2022-11-24T05:59:15.831Z,31.60
2022-11-24T06:01:43.910Z,20.40
2022-11-24T06:04:12.029Z,33.00
2022-11-24T06:06:41.741Z,24.63
2022-11-24T06:09:09.962Z,35.10
2022-11-24T06:11:37.985Z,25.00
2022-11-24T06:14:10.881Z,33.05
2022-11-24T06:16:39.463Z,29.80
2022-11-24T06:19:07.804Z,37.78
2022-11-24T06:21:35.884Z,33.08
2022-11-24T06:24:06.030Z,25.77
2022-11-24T06:26:34.254Z,38.22
2022-11-24T06:29:02.508Z,34.88
2022-11-24T06:31:30.901Z,20.13
2022-11-24T06:33:59.260Z,29.52
2022-11-24T06:36:27.663Z,40.83
2022-11-24T06:38:55.802Z,22.58
2022-11-24T06:41:25.218Z,19.13
2022-11-24T06:43:53.256Z,34.05
2022-11-24T06:46:22.569Z,28.75
2022-11-24T06:48:53.295Z,23.10
2022-11-24T06:51:21.453Z,37.40
2022-11-24T06:53:49.572Z,22.60
2022-11-24T06:56:20.931Z,28.52
2022-11-24T06:58:51.928Z,27.77
2022-11-24T07:01:21.474Z,25.63
2022-11-24T07:03:49.933Z,23.05
2022-11-24T07:06:18.732Z,21.70
2022-11-24T07:08:48.285Z,28.60
2022-11-24T07:11:18.844Z,19.45
2022-11-24T07:13:48.434Z,22.50
2022-11-24T07:16:20.295Z,18.75
2022-11-24T07:18:49.864Z,14.65
2022-11-24T07:21:18.211Z,11.75
2022-11-24T07:23:48.910Z,30.77
2022-11-24T07:26:17.540Z,28.75
2022-11-24T07:28:45.704Z,31.60
2022-11-24T07:31:15.575Z,25.25
2022-11-24T07:33:45.395Z,26.60
2022-11-24T07:36:13.450Z,25.35
2022-11-24T07:38:41.487Z,27.42
2022-11-24T07:41:12.066Z,31.23
2022-11-24T07:43:41.361Z,21.15
2022-11-24T07:46:12.979Z,21.67
2022-11-24T07:48:41.647Z,39.03
2022-11-24T07:51:10.991Z,27.70
2022-11-24T07:53:39.179Z,20.20
2022-11-24T07:56:08.262Z,34.60
2022-11-24T07:58:37.724Z,27.35
2022-11-24T08:01:14.229Z,27.45
2022-11-24T08:03:42.623Z,18.73
2022-11-24T08:06:32.575Z,22.85
2022-11-24T08:09:00.710Z,19.40
2022-11-24T08:11:31.499Z,20.95
2022-11-24T08:14:00.093Z,18.58
2022-11-24T08:16:28.364Z,23.30
2022-11-24T08:18:57.320Z,18.02
2022-11-24T08:21:27.272Z,20.52
2022-11-24T08:23:56.854Z,20.08
2022-11-24T08:26:25.438Z,20.55
2022-11-24T08:28:56.574Z,23.15
2022-11-24T08:31:27.484Z,20.30
2022-11-24T08:33:56.790Z,21.30
2022-11-24T08:36:27.678Z,20.13
2022-11-24T08:38:57.502Z,21.88
2022-11-24T08:41:27.242Z,15.82
2022-11-24T08:43:55.739Z,14.98
2022-11-24T08:46:24.427Z,19.00
2022-11-24T08:48:54.251Z,19.80
2022-11-24T08:51:24.189Z,16.67
2022-11-24T08:53:58.500Z,18.40
2022-11-24T08:56:27.396Z,16.05
2022-11-24T08:58:55.927Z,13.63
2022-11-24T09:01:25.124Z,16.70
2022-11-24T09:03:53.499Z,13.93
2022-11-24T09:06:24.020Z,16.88
2022-11-24T09:09:01.510Z,13.13
2022-11-24T09:11:38.238Z,7.82
2022-11-24T09:14:13.589Z,7.68
2022-11-24T09:19:38.219Z,2.53
2022-11-24T09:22:13.477Z,0.57
2022-11-24T09:24:41.731Z,0.98
2022-11-24T09:27:12.942Z,0.95
2022-11-24T09:29:47.885Z,0.73
2022-11-24T09:32:23.851Z,1.83
2022-11-24T09:34:51.999Z,1.70
2022-11-24T09:37:25.031Z,0.77
2022-11-24T09:40:00.410Z,4.03
2022-11-24T09:42:58.064Z,1.83
2022-11-24T09:46:04.915Z,3.90
2022-11-24T09:48:48.974Z,2.60
2022-11-24T09:51:26.177Z,1.23
2022-11-24T09:53:58.686Z,1.40
2022-11-24T09:56:31.806Z,6.13
2022-11-24T09:59:05.163Z,1.85
2022-11-24T10:01:39.772Z,6.53
2022-11-24T10:04:17.874Z,4.30
2022-11-24T10:06:51.784Z,5.53
2022-11-24T10:09:32.788Z,7.13
2022-11-24T10:12:17.519Z,8.38
2022-11-24T10:15:38.042Z,10.73
2022-11-24T10:18:40.081Z,7.00
2022-11-24T10:21:34.219Z,8.68
2022-11-24T10:24:55.496Z,12.30
2022-11-24T10:27:46.644Z,12.20
2022-11-24T10:30:24.024Z,11.48
2022-11-24T10:33:23.187Z,21.02
2022-11-24T10:36:28.581Z,12.07
2022-11-24T10:39:07.404Z,7.60
2022-11-24T10:41:44.379Z,21.10
2022-11-24T10:44:19.314Z,23.77
2022-11-24T10:46:55.553Z,9.45
2022-11-24T10:49:48.187Z,12.65
2022-11-24T10:52:46.710Z,10.43
2022-11-24T10:55:21.710Z,13.10
2022-11-24T10:57:55.070Z,19.45
2022-11-24T11:00:39.679Z,21.85
2022-11-24T11:03:23.376Z,19.88
2022-11-24T11:05:55.223Z,27.17
2022-11-24T11:08:32.796Z,11.52
2022-11-24T11:11:34.765Z,15.40
2022-11-24T11:14:05.345Z,9.23
2022-11-24T11:16:42.223Z,15.38
2022-11-24T11:19:49.725Z,17.02
2022-11-24T11:22:45.408Z,17.58
2022-11-24T11:25:36.229Z,20.65
2022-11-24T11:28:32.309Z,20.08
2022-11-24T11:31:24.592Z,11.95
2022-11-24T11:34:06.188Z,23.85
2022-11-24T11:36:43.006Z,11.48
2022-11-24T11:39:26.069Z,24.92
2022-11-24T11:45:33.059Z,11.60
2022-11-24T11:51:21.687Z,9.13
2022-11-24T11:53:55.997Z,11.95
2022-11-24T11:56:27.303Z,14.68
2022-11-24T11:59:31.967Z,13.50
2022-11-24T12:02:55.852Z,17.08
2022-11-24T12:05:35.056Z,20.25
2022-11-24T12:08:21.589Z,17.58
2022-11-24T12:11:07.577Z,15.32
2022-11-24T12:13:51.577Z,23.27
2022-11-24T12:16:32.291Z,14.45
2022-11-24T12:19:18.838Z,12.25
2022-11-24T12:21:56.608Z,7.18
2022-11-24T12:24:38.024Z,12.25
2022-11-24T12:30:10.921Z,14.25
2022-11-24T12:33:08.481Z,12.50
2022-11-24T12:35:39.913Z,10.73
2022-11-24T12:38:31.698Z,10.07
2022-11-24T12:41:41.008Z,19.50
2022-11-24T12:46:54.253Z,21.77
2022-11-24T12:49:38.430Z,12.45
2022-11-24T12:52:18.532Z,22.58
2022-11-24T12:54:53.292Z,8.20
2022-11-24T12:57:30.376Z,7.82
2022-11-24T13:00:07.576Z,15.20
2022-11-24T13:02:55.067Z,23.00
2022-11-24T13:05:32.038Z,18.80
2022-11-24T13:08:02.557Z,21.42
2022-11-24T13:13:29.041Z,15.05
2022-11-24T13:19:16.346Z,13.40
2022-11-24T13:21:52.022Z,22.48
2022-11-24T13:24:25.989Z,15.30
2022-11-24T13:26:56.028Z,17.20
2022-11-24T13:29:35.687Z,16.85
2022-11-24T13:32:52.356Z,19.38
2022-11-24T13:35:20.465Z,17.75
2022-11-24T13:37:52.985Z,14.43
2022-11-24T13:40:59.856Z,12.40
2022-11-24T13:43:32.203Z,12.13
2022-11-24T13:46:03.867Z,17.17
2022-11-24T13:48:54.329Z,22.13
2022-11-24T13:51:26.323Z,15.80
2022-11-24T13:54:00.976Z,12.45
2022-11-24T13:56:31.838Z,10.18
2022-11-24T13:59:02.487Z,14.63
2022-11-24T14:01:32.629Z,10.93
2022-11-24T14:07:05.609Z,15.73
2022-11-24T14:09:43.813Z,17.85
2022-11-24T14:12:16.813Z,16.15
2022-11-24T14:14:47.624Z,9.70
2022-11-24T14:17:23.094Z,10.00
2022-11-24T14:19:53.662Z,17.40
2022-11-24T14:22:27.027Z,10.02
2022-11-24T14:24:58.785Z,15.95
2022-11-24T14:27:31.547Z,11.35
2022-11-24T14:30:06.700Z,8.15
2022-11-24T14:32:34.911Z,12.73
2022-11-24T14:35:03.599Z,16.23
2022-11-24T14:37:32.061Z,16.58
2022-11-24T14:40:01.911Z,12.20
2022-11-24T14:42:33.401Z,15.43
2022-11-24T14:45:07.208Z,12.23
2022-11-24T14:47:39.561Z,15.15
2022-11-24T14:50:12.299Z,17.67
2022-11-24T14:52:50.345Z,21.05
2022-11-24T14:55:29.414Z,13.73
2022-11-24T14:58:03.661Z,13.35
2022-11-24T15:00:43.882Z,11.75
2022-11-24T15:03:20.430Z,16.48
2022-11-24T15:05:56.703Z,18.88
2022-11-24T15:08:26.559Z,17.63
2022-11-24T15:11:02.270Z,18.20
2022-11-24T15:13:35.033Z,20.95
2022-11-24T15:16:07.807Z,30.08
2022-11-24T15:18:44.081Z,21.00
2022-11-24T15:21:18.939Z,13.80
2022-11-24T15:24:07.440Z,16.40
2022-11-24T15:26:41.982Z,17.88
2022-11-24T15:29:11.084Z,16.58
2022-11-24T15:31:40.357Z,12.10
2022-11-24T15:34:15.671Z,17.90
2022-11-24T15:36:44.292Z,8.35
2022-11-24T15:39:13.396Z,4.28
2022-11-24T15:41:49.851Z,8.73
2022-11-24T15:44:18.138Z,5.38
2022-11-24T15:46:46.444Z,2.72
2022-11-24T15:49:20.405Z,3.05
2022-11-24T15:51:49.728Z,3.63
2022-11-24T15:54:20.192Z,2.40
2022-11-24T15:56:50.007Z,3.13
2022-11-24T15:59:20.764Z,3.10
2022-11-24T16:01:51.135Z,3.90
2022-11-24T16:04:19.726Z,9.57
2022-11-24T16:06:48.211Z,8.80
2022-11-24T16:09:19.769Z,3.53
2022-11-24T16:11:49.325Z,7.63
2022-11-24T16:14:17.791Z,8.88
2022-11-24T16:16:46.770Z,4.68
2022-11-24T16:19:20.241Z,9.50
2022-11-24T16:21:49.432Z,8.50
2022-11-24T16:24:24.069Z,15.77
2022-11-24T16:27:20.260Z,9.57
2022-11-24T16:29:49.075Z,10.80
2022-11-24T16:32:17.398Z,6.95
2022-11-24T16:34:45.579Z,10.10
2022-11-24T16:37:24.005Z,5.18
2022-11-24T16:39:52.519Z,20.38
2022-11-24T16:42:22.554Z,9.65
2022-11-24T16:44:52.290Z,13.13
2022-11-24T16:47:20.471Z,12.98
2022-11-24T16:49:49.043Z,10.27
2022-11-24T16:52:18.675Z,11.57
2022-11-24T16:54:47.812Z,12.95
2022-11-24T16:57:17.494Z,17.58
2022-11-24T16:59:47.201Z,8.63
2022-11-24T17:02:15.584Z,12.77
2022-11-24T17:04:43.714Z,19.63
2022-11-24T17:07:18.582Z,26.38
2022-11-24T17:09:51.935Z,12.68
2022-11-24T17:12:20.233Z,21.50
2022-11-24T17:15:16.469Z,17.83
2022-11-24T17:17:55.119Z,17.85
2022-11-24T17:20:27.274Z,12.55
2022-11-24T17:22:55.734Z,15.18
2022-11-24T17:25:24.181Z,11.43
2022-11-24T17:27:52.895Z,20.23
2022-11-24T17:30:25.528Z,11.68
2022-11-24T17:32:56.758Z,10.18
2022-11-24T17:35:28.595Z,10.13
2022-11-24T17:37:58.351Z,6.72
2022-11-24T17:40:30.313Z,13.38
2022-11-24T17:43:18.631Z,15.63
2022-11-24T17:45:55.013Z,11.93
2022-11-24T17:48:25.246Z,11.07
2022-11-24T17:54:44.908Z,13.50
2022-11-24T17:57:32.824Z,13.27
2022-11-24T18:03:31.788Z,4.35
2022-11-24T18:06:21.965Z,16.88
2022-11-24T18:08:50.619Z,12.60
2022-11-24T18:11:37.096Z,7.18
2022-11-24T18:14:06.379Z,19.15
2022-11-24T18:16:36.098Z,12.68
2022-11-24T18:19:11.342Z,8.23
2022-11-24T18:32:59.317Z,8.32
2022-11-24T18:39:33.611Z,10.75
2022-11-24T18:42:30.398Z,11.70
2022-11-24T19:09:41.512Z,6.82
2022-11-24T19:12:17.686Z,14.10
2022-11-24T19:15:16.733Z,8.40
2022-11-24T19:17:47.311Z,14.48
2022-11-24T19:20:18.646Z,10.32
2022-11-24T19:22:51.829Z,11.55
2022-11-24T19:25:23.440Z,9.57
2022-11-24T19:27:59.218Z,9.70
2022-11-24T19:30:30.474Z,9.27
2022-11-24T19:32:58.842Z,17.58
2022-11-24T19:35:26.884Z,12.25
2022-11-24T19:37:58.423Z,12.93
2022-11-24T19:40:36.683Z,9.95
2022-11-24T19:43:08.686Z,11.65
2022-11-24T19:45:44.344Z,16.27
2022-11-24T19:48:34.616Z,15.35
2022-11-24T19:53:43.448Z,24.90
2022-11-24T19:56:16.644Z,25.30
2022-11-24T19:58:50.022Z,16.48
2022-11-24T20:02:35.156Z,22.88
2022-11-24T20:06:09.863Z,15.00
2022-11-24T20:08:39.145Z,13.80
2022-11-24T20:22:57.122Z,11.15
2022-11-24T20:26:21.870Z,11.45
2022-11-24T20:29:09.891Z,7.50
2022-11-24T20:31:47.751Z,8.27
2022-11-24T20:34:24.596Z,9.23
2022-11-24T20:39:43.775Z,8.43
2022-11-24T20:42:36.914Z,19.38
2022-11-24T20:45:32.606Z,9.93
2022-11-24T20:48:50.006Z,6.18
2022-11-24T20:51:31.721Z,9.60
2022-11-24T20:54:23.240Z,8.13
2022-11-24T20:57:24.244Z,6.43
2022-11-24T20:59:59.174Z,7.30
2022-11-24T21:02:37.006Z,4.78
2022-11-24T21:05:07.734Z,12.43
2022-11-24T21:07:51.463Z,12.68
2022-11-24T21:10:29.522Z,15.52
2022-11-24T21:13:03.384Z,8.07
2022-11-24T21:15:51.243Z,13.70
2022-11-24T21:18:36.047Z,18.20
2022-11-24T21:21:09.403Z,7.47
2022-11-24T21:23:44.521Z,6.68
2022-11-24T21:26:24.113Z,9.02
2022-11-24T21:28:53.820Z,5.05
2022-11-24T21:34:06.446Z,9.70
2022-11-24T21:36:37.204Z,8.48
2022-11-24T21:39:12.797Z,5.85
2022-11-24T21:41:43.580Z,7.20
2022-11-24T21:44:14.564Z,8.20
2022-11-24T21:46:56.118Z,8.57
2022-11-24T21:49:24.434Z,4.50
2022-11-24T21:51:56.119Z,12.27
2022-11-24T21:54:25.838Z,4.28
2022-11-24T21:56:57.047Z,7.22
2022-11-24T21:59:29.346Z,4.07
2022-11-24T22:01:57.605Z,4.13
2022-11-24T22:04:26.976Z,11.60
2022-11-24T22:07:03.462Z,3.87
2022-11-24T22:09:45.571Z,6.47
2022-11-24T22:12:23.075Z,5.75
2022-11-24T22:15:19.207Z,4.28
2022-11-24T22:17:53.859Z,3.58
2022-11-24T22:20:24.296Z,3.78
2022-11-24T22:22:56.266Z,4.38
2022-11-24T22:25:31.523Z,8.32
2022-11-24T22:27:59.620Z,8.63
2022-11-24T22:30:38.047Z,6.03
2022-11-24T22:33:09.183Z,7.80
2022-11-24T22:35:38.425Z,5.13
2022-11-24T22:38:14.047Z,9.30
2022-11-24T22:40:47.642Z,6.38
2022-11-24T22:43:18.899Z,5.60
2022-11-24T22:45:50.815Z,5.15
2022-11-24T22:48:23.375Z,2.40
2022-11-24T22:51:05.105Z,5.22
2022-11-24T22:53:36.216Z,7.13
2022-11-24T22:56:09.543Z,3.15
2022-11-24T22:58:38.615Z,3.95
2022-11-24T23:01:07.672Z,2.60
2022-11-24T23:03:36.903Z,2.63
2022-11-24T23:06:16.037Z,4.97
2022-11-24T23:08:44.513Z,8.88
2022-11-24T23:11:15.551Z,4.63
2022-11-24T23:13:48.797Z,4.32
2022-11-24T23:16:19.405Z,4.60
2022-11-24T23:19:12.967Z,5.63
2022-11-24T23:21:44.207Z,5.30
2022-11-24T23:24:16.965Z,3.78
2022-11-24T23:26:46.679Z,6.70
2022-11-24T23:29:18.863Z,3.13
2022-11-24T23:32:02.607Z,3.63
2022-11-24T23:34:30.723Z,3.92
2022-11-24T23:37:00.367Z,3.33
2022-11-24T23:39:28.690Z,3.40
2022-11-24T23:42:07.611Z,6.65
2022-11-24T23:44:37.521Z,7.68
2022-11-24T23:47:05.977Z,6.50
2022-11-24T23:49:35.791Z,4.30
2022-11-24T23:52:05.557Z,3.53
2022-11-24T23:54:36.727Z,4.20
2022-11-24T23:57:14.935Z,2.50
2022-11-24T23:59:43.217Z,3.70
